sensor_id;sensor_type;location;lat;lon;timestamp;pressure;altitude;pressure_sealevel;temperature;humidity
3917;BME280;1973;50.518;7.318;2023-02-19T00:01:31;101224.41;;;12.32;100.00
3917;BME280;1973;50.518;7.318;2023-02-19T00:04:00;101219.94;;;12.31;100.00
3917;BME280;1973;50.518;7.318;2023-02-19T00:06:29;101209.75;;;12.31;100.00
3917;BME280;1973;50.518;7.318;2023-02-19T00:08:56;101218.28;;;12.30;100.00
3917;BME280;1973;50.518;7.318;2023-02-19T00:11:25;101219.34;;;12.29;100.00
3917;BME280;1973;50.518;7.318;2023-02-19T00:13:53;101210.44;;;12.27;100.00
3917;BME280;1973;50.518;7.318;2023-02-19T00:16:26;101221.88;;;12.24;100.00
3917;BME280;1973;50.518;7.318;2023-02-19T00:18:57;101213.41;;;12.18;100.00
3917;BME280;1973;50.518;7.318;2023-02-19T00:21:25;101213.84;;;12.15;100.00
3917;BME280;1973;50.518;7.318;2023-02-19T00:23:54;101200.47;;;12.12;100.00
3917;BME280;1973;50.518;7.318;2023-02-19T00:26:22;101198.78;;;12.11;100.00
3917;BME280;1973;50.518;7.318;2023-02-19T00:28:50;101193.88;;;12.13;100.00
3917;BME280;1973;50.518;7.318;2023-02-19T00:31:21;101208.97;;;12.17;100.00
3917;BME280;1973;50.518;7.318;2023-02-19T00:33:51;101208.75;;;12.19;100.00
3917;BME280;1973;50.518;7.318;2023-02-19T00:36:19;101208.75;;;12.19;100.00
3917;BME280;1973;50.518;7.318;2023-02-19T00:38:46;101215.94;;;12.20;100.00
3917;BME280;1973;50.518;7.318;2023-02-19T00:41:14;101211.28;;;12.20;100.00
3917;BME280;1973;50.518;7.318;2023-02-19T00:43:57;101203.66;;;12.23;100.00
3917;BME280;1973;50.518;7.318;2023-02-19T00:46:26;101204.25;;;12.25;100.00
3917;BME280;1973;50.518;7.318;2023-02-19T00:48:54;101196.84;;;12.25;100.00
3917;BME280;1973;50.518;7.318;2023-02-19T00:51:26;101206.41;;;12.23;100.00
3917;BME280;1973;50.518;7.318;2023-02-19T00:53:53;101205.75;;;12.20;100.00
3917;BME280;1973;50.518;7.318;2023-02-19T00:56:20;101200.25;;;12.20;100.00
3917;BME280;1973;50.518;7.318;2023-02-19T00:58:47;101200.25;;;12.20;100.00
3917;BME280;1973;50.518;7.318;2023-02-19T01:01:14;101202.16;;;12.13;100.00
3917;BME280;1973;50.518;7.318;2023-02-19T01:03:41;101189.69;;;12.04;100.00
3917;BME280;1973;50.518;7.318;2023-02-19T01:06:09;101197.31;;;12.02;100.00
3917;BME280;1973;50.518;7.318;2023-02-19T01:08:36;101200.94;;;11.96;100.00
3917;BME280;1973;50.518;7.318;2023-02-19T01:11:04;101193.75;;;11.89;100.00
3917;BME280;1973;50.518;7.318;2023-02-19T01:13:32;101185.91;;;11.86;100.00
3917;BME280;1973;50.518;7.318;2023-02-19T01:16:13;101184.81;;;11.87;100.00
3917;BME280;1973;50.518;7.318;2023-02-19T01:18:40;101188.41;;;11.87;100.00
3917;BME280;1973;50.518;7.318;2023-02-19T01:21:11;101187.56;;;11.87;100.00
3917;BME280;1973;50.518;7.318;2023-02-19T01:23:38;101181.19;;;11.86;100.00
3917;BME280;1973;50.518;7.318;2023-02-19T01:26:07;101182.91;;;11.87;100.00
3917;BME280;1973;50.518;7.318;2023-02-19T01:28:34;101172.31;;;11.84;100.00
3917;BME280;1973;50.518;7.318;2023-02-19T01:31:02;101175.25;;;11.83;100.00
3917;BME280;1973;50.518;7.318;2023-02-19T01:33:29;101171.69;;;11.82;100.00
3917;BME280;1973;50.518;7.318;2023-02-19T01:35:56;101175.50;;;11.81;100.00
3917;BME280;1973;50.518;7.318;2023-02-19T01:38:22;101173.16;;;11.78;100.00
3917;BME280;1973;50.518;7.318;2023-02-19T01:41:04;101178.69;;;11.78;100.00
3917;BME280;1973;50.518;7.318;2023-02-19T01:43:33;101176.53;;;11.80;100.00
3917;BME280;1973;50.518;7.318;2023-02-19T01:46:00;101168.91;;;11.82;100.00
3917;BME280;1973;50.518;7.318;2023-02-19T01:48:31;101170.59;;;11.83;100.00
3917;BME280;1973;50.518;7.318;2023-02-19T01:51:07;101161.47;;;11.83;100.00
3917;BME280;1973;50.518;7.318;2023-02-19T01:53:38;101163.16;;;11.84;100.00
3917;BME280;1973;50.518;7.318;2023-02-19T01:56:07;101162.97;;;11.85;100.00
3917;BME280;1973;50.518;7.318;2023-02-19T01:58:37;101164.63;;;11.86;100.00
3917;BME280;1973;50.518;7.318;2023-02-19T02:01:06;101181.19;;;11.86;100.00
3917;BME280;1973;50.518;7.318;2023-02-19T02:03:39;101185.91;;;11.86;100.00
3917;BME280;1973;50.518;7.318;2023-02-19T02:06:12;101175.50;;;11.81;100.00
3917;BME280;1973;50.518;7.318;2023-02-19T02:08:41;101173.16;;;11.78;100.00
3917;BME280;1973;50.518;7.318;2023-02-19T02:11:26;101167.84;;;11.77;100.00
3917;BME280;1973;50.518;7.318;2023-02-19T02:13:53;101158.09;;;11.74;100.00
3917;BME280;1973;50.518;7.318;2023-02-19T02:16:24;101150.63;;;11.68;100.00
3917;BME280;1973;50.518;7.318;2023-02-19T02:19:43;101142.19;;;11.50;100.00
3917;BME280;1973;50.518;7.318;2023-02-19T02:22:31;101142.84;;;11.45;100.00
3917;BME280;1973;50.518;7.318;2023-02-19T02:27:53;101151.94;;;11.46;100.00
3917;BME280;1973;50.518;7.318;2023-02-19T02:30:35;101142.19;;;11.43;100.00
3917;BME280;1973;50.518;7.318;2023-02-19T02:35:55;101174.00;;;11.39;100.00
3917;BME280;1973;50.518;7.318;2023-02-19T02:38:28;101145.56;;;11.39;100.00
3917;BME280;1973;50.518;7.318;2023-02-19T02:40:56;101151.94;;;11.33;100.00
3917;BME280;1973;50.518;7.318;2023-02-19T02:43:24;101158.09;;;11.28;100.00
3917;BME280;1973;50.518;7.318;2023-02-19T02:45:51;101156.59;;;11.26;100.00
3917;BME280;1973;50.518;7.318;2023-02-19T02:48:23;101164.44;;;11.29;100.00
3917;BME280;1973;50.518;7.318;2023-02-19T02:51:00;101168.50;;;11.26;100.00
3917;BME280;1973;50.518;7.318;2023-02-19T02:53:46;101173.78;;;11.28;100.00
3917;BME280;1973;50.518;7.318;2023-02-19T02:56:33;101179.09;;;11.22;100.00
3917;BME280;1973;50.518;7.318;2023-02-19T02:59:01;101177.38;;;11.15;100.00
3917;BME280;1973;50.518;7.318;2023-02-19T03:01:34;101166.97;;;11.04;100.00
3917;BME280;1973;50.518;7.318;2023-02-19T03:04:32;101175.25;;;10.97;100.00
3917;BME280;1973;50.518;7.318;2023-02-19T03:07:04;101166.53;;;10.94;100.00
3917;BME280;1973;50.518;7.318;2023-02-19T03:09:37;101165.03;;;10.91;100.00
3917;BME280;1973;50.518;7.318;2023-02-19T03:12:09;101167.16;;;10.89;100.00
3917;BME280;1973;50.518;7.318;2023-02-19T03:15:00;101169.91;;;10.89;100.00
3917;BME280;1973;50.518;7.318;2023-02-19T03:17:50;101166.09;;;10.90;100.00
3917;BME280;1973;50.518;7.318;2023-02-19T03:20:39;101160.38;;;10.92;100.00
3917;BME280;1973;50.518;7.318;2023-02-19T03:23:08;101157.81;;;10.90;100.00
3917;BME280;1973;50.518;7.318;2023-02-19T03:25:36;101166.31;;;10.95;100.00
3917;BME280;1973;50.518;7.318;2023-02-19T03:28:27;101154.88;;;10.98;100.00
3917;BME280;1973;50.518;7.318;2023-02-19T03:31:18;101151.06;;;10.99;100.00
3917;BME280;1973;50.518;7.318;2023-02-19T03:33:50;101150.66;;;11.02;100.00
3917;BME280;1973;50.518;7.318;2023-02-19T03:36:20;101164.22;;;11.04;100.00
3917;BME280;1973;50.518;7.318;2023-02-19T03:39:04;101159.34;;;11.06;100.00
3917;BME280;1973;50.518;7.318;2023-02-19T03:41:56;101170.59;;;11.04;100.00
3917;BME280;1973;50.518;7.318;2023-02-19T03:47:26;101168.66;;;10.98;100.00
3917;BME280;1973;50.518;7.318;2023-02-19T03:49:59;101186.66;;;10.94;100.00
3917;BME280;1973;50.518;7.318;2023-02-19T03:55:05;101171.19;;;10.93;100.00
3917;BME280;1973;50.518;7.318;2023-02-19T04:00:16;101180.72;;;10.91;100.00
3917;BME280;1973;50.518;7.318;2023-02-19T04:02:48;101184.53;;;10.90;100.00
3917;BME280;1973;50.518;7.318;2023-02-19T04:07:45;101199.78;;;10.92;100.00
3917;BME280;1973;50.518;7.318;2023-02-19T04:10:15;101194.47;;;10.91;100.00
3917;BME280;1973;50.518;7.318;2023-02-19T04:12:47;101193.25;;;10.93;100.00
3917;BME280;1973;50.518;7.318;2023-02-19T04:15:20;101200.22;;;10.96;100.00
3917;BME280;1973;50.518;7.318;2023-02-19T04:17:54;101202.78;;;10.97;100.00
3917;BME280;1973;50.518;7.318;2023-02-19T04:20:24;101206.16;;;10.99;100.00
3917;BME280;1973;50.518;7.318;2023-02-19T04:22:52;101197.72;;;11.01;100.00
3917;BME280;1973;50.518;7.318;2023-02-19T04:25:19;101208.31;;;11.04;100.00
3917;BME280;1973;50.518;7.318;2023-02-19T04:27:46;101207.44;;;11.03;100.00
3917;BME280;1973;50.518;7.318;2023-02-19T04:30:14;101208.94;;;11.06;100.00
3917;BME280;1973;50.518;7.318;2023-02-19T04:32:40;101212.97;;;11.10;100.00
3917;BME280;1973;50.518;7.318;2023-02-19T04:35:07;101217.19;;;11.12;100.00
3917;BME280;1973;50.518;7.318;2023-02-19T04:37:33;101224.00;;;11.16;100.00
3917;BME280;1973;50.518;7.318;2023-02-19T04:40:00;101227.41;;;11.18;100.00
3917;BME280;1973;50.518;7.318;2023-02-19T04:42:26;101217.88;;;11.21;100.00
3917;BME280;1973;50.518;7.318;2023-02-19T04:44:53;101230.38;;;11.23;100.00
3917;BME280;1973;50.518;7.318;2023-02-19T04:47:19;101241.00;;;11.27;100.00
3917;BME280;1973;50.518;7.318;2023-02-19T04:49:46;101234.84;;;11.24;100.00
3917;BME280;1973;50.518;7.318;2023-02-19T04:52:12;101252.22;;;11.25;100.00
3917;BME280;1973;50.518;7.318;2023-02-19T04:54:38;101253.69;;;11.28;100.00
3917;BME280;1973;50.518;7.318;2023-02-19T04:57:05;101250.09;;;11.27;100.00
3917;BME280;1973;50.518;7.318;2023-02-19T04:59:31;101249.03;;;11.28;100.00
3917;BME280;1973;50.518;7.318;2023-02-19T05:01:58;101238.00;;;11.28;100.00
3917;BME280;1973;50.518;7.318;2023-02-19T05:04:24;101235.50;;;11.27;100.00
3917;BME280;1973;50.518;7.318;2023-02-19T05:06:51;101225.28;;;11.27;100.00
3917;BME280;1973;50.518;7.318;2023-02-19T05:09:17;101225.72;;;11.24;100.00
3917;BME280;1973;50.518;7.318;2023-02-19T05:11:44;101239.91;;;11.28;100.00
3917;BME280;1973;50.518;7.318;2023-02-19T05:14:10;101247.13;;;11.29;100.00
3917;BME280;1973;50.518;7.318;2023-02-19T05:16:37;101250.56;;;11.31;100.00
3917;BME280;1973;50.518;7.318;2023-02-19T05:19:03;101262.19;;;11.26;100.00
3917;BME280;1973;50.518;7.318;2023-02-19T05:21:29;101258.78;;;11.24;100.00
3917;BME280;1973;50.518;7.318;2023-02-19T05:23:56;101250.31;;;11.26;100.00
3917;BME280;1973;50.518;7.318;2023-02-19T05:26:23;101253.69;;;11.28;100.00
3917;BME280;1973;50.518;7.318;2023-02-19T05:28:51;101260.50;;;11.25;100.00
3917;BME280;1973;50.518;7.318;2023-02-19T05:31:19;101264.09;;;11.26;100.00
3917;BME280;1973;50.518;7.318;2023-02-19T05:33:46;101275.13;;;11.26;100.00
3917;BME280;1973;50.518;7.318;2023-02-19T05:36:17;101266.00;;;11.25;100.00
3917;BME280;1973;50.518;7.318;2023-02-19T05:38:45;101275.13;;;11.26;100.00
3917;BME280;1973;50.518;7.318;2023-02-19T05:41:14;101276.41;;;11.30;100.00
3917;BME280;1973;50.518;7.318;2023-02-19T05:43:42;101270.25;;;11.28;100.00
3917;BME280;1973;50.518;7.318;2023-02-19T05:46:12;101283.81;;;11.29;100.00
3917;BME280;1973;50.518;7.318;2023-02-19T05:48:39;101292.28;;;11.28;100.00
3917;BME280;1973;50.518;7.318;2023-02-19T05:51:12;101281.91;;;11.30;100.00
3917;BME280;1973;50.518;7.318;2023-02-19T05:53:39;101289.97;;;11.31;100.00
3917;BME280;1973;50.518;7.318;2023-02-19T05:56:37;101287.44;;;11.30;100.00
3917;BME280;1973;50.518;7.318;2023-02-19T05:59:18;101298.47;;;11.30;100.00
3917;BME280;1973;50.518;7.318;2023-02-19T06:01:46;101294.66;;;11.31;100.00
3917;BME280;1973;50.518;7.318;2023-02-19T06:04:13;101288.06;;;11.32;100.00
3917;BME280;1973;50.518;7.318;2023-02-19T06:06:41;101309.06;;;11.33;100.00
3917;BME280;1973;50.518;7.318;2023-02-19T06:09:08;101309.91;;;11.33;100.00
3917;BME280;1973;50.518;7.318;2023-02-19T06:11:35;101314.78;;;11.31;100.00
3917;BME280;1973;50.518;7.318;2023-02-19T06:14:01;101305.88;;;11.29;100.00
3917;BME280;1973;50.518;7.318;2023-02-19T06:16:28;101318.56;;;11.23;100.00
3917;BME280;1973;50.518;7.318;2023-02-19T06:18:54;101315.81;;;11.23;100.00
3917;BME280;1973;50.518;7.318;2023-02-19T06:21:21;101324.06;;;11.23;100.00
3917;BME280;1973;50.518;7.318;2023-02-19T06:23:48;101331.09;;;11.26;100.00
3917;BME280;1973;50.518;7.318;2023-02-19T06:26:18;101334.28;;;11.23;100.00
3917;BME280;1973;50.518;7.318;2023-02-19T06:28:46;101335.09;;;11.23;100.00
3917;BME280;1973;50.518;7.318;2023-02-19T06:31:13;101336.59;;;11.19;100.00
3917;BME280;1973;50.518;7.318;2023-02-19T06:33:40;101332.13;;;11.18;100.00
3917;BME280;1973;50.518;7.318;2023-02-19T06:36:11;101344.88;;;11.19;100.00
3917;BME280;1973;50.518;7.318;2023-02-19T06:38:38;101350.38;;;11.19;100.00
3917;BME280;1973;50.518;7.318;2023-02-19T06:41:05;101342.75;;;11.21;100.00
3917;BME280;1973;50.518;7.318;2023-02-19T06:43:33;101347.22;;;11.22;100.00
3917;BME280;1973;50.518;7.318;2023-02-19T06:46:01;101350.59;;;11.24;100.00
3917;BME280;1973;50.518;7.318;2023-02-19T06:48:28;101353.13;;;11.19;100.00
3917;BME280;1973;50.518;7.318;2023-02-19T06:50:55;101338.06;;;11.15;100.00
3917;BME280;1973;50.518;7.318;2023-02-19T06:53:31;101358.59;;;11.13;100.00
3917;BME280;1973;50.518;7.318;2023-02-19T06:56:06;101363.91;;;11.14;100.00
3917;BME280;1973;50.518;7.318;2023-02-19T06:58:33;101366.69;;;11.14;100.00
3917;BME280;1973;50.518;7.318;2023-02-19T07:01:00;101368.38;;;11.15;100.00
3917;BME280;1973;50.518;7.318;2023-02-19T07:03:26;101368.38;;;11.15;100.00
3917;BME280;1973;50.518;7.318;2023-02-19T07:05:53;101367.31;;;11.16;100.00
3917;BME280;1973;50.518;7.318;2023-02-19T07:08:19;101360.75;;;11.17;100.00
3917;BME280;1973;50.518;7.318;2023-02-19T07:10:56;101364.34;;;11.18;100.00
3917;BME280;1973;50.518;7.318;2023-02-19T07:13:23;101361.16;;;11.14;100.00
3917;BME280;1973;50.518;7.318;2023-02-19T07:15:58;101383.22;;;11.14;100.00
3917;BME280;1973;50.518;7.318;2023-02-19T07:18:25;101385.97;;;11.14;100.00
3917;BME280;1973;50.518;7.318;2023-02-19T07:20:51;101375.78;;;11.15;100.00
3917;BME280;1973;50.518;7.318;2023-02-19T07:23:18;101391.47;;;11.14;100.00
3917;BME280;1973;50.518;7.318;2023-02-19T07:25:44;101395.72;;;11.17;100.00
3917;BME280;1973;50.518;7.318;2023-02-19T07:28:11;101403.78;;;11.18;100.00
3917;BME280;1973;50.518;7.318;2023-02-19T07:30:37;101410.34;;;11.17;100.00
3917;BME280;1973;50.518;7.318;2023-02-19T07:33:03;101401.66;;;11.20;100.00
3917;BME280;1973;50.518;7.318;2023-02-19T07:35:30;101407.44;;;11.26;100.00
3917;BME280;1973;50.518;7.318;2023-02-19T07:37:56;101420.78;;;11.29;100.00
3917;BME280;1973;50.518;7.318;2023-02-19T07:40:23;101423.13;;;11.32;100.00
3917;BME280;1973;50.518;7.318;2023-02-19T07:42:49;101421.66;;;11.36;100.00
3917;BME280;1973;50.518;7.318;2023-02-19T07:45:16;101411.94;;;11.40;100.00
3917;BME280;1973;50.518;7.318;2023-02-19T07:47:42;101427.19;;;11.36;100.00
3917;BME280;1973;50.518;7.318;2023-02-19T07:50:09;101429.75;;;11.37;100.00
3917;BME280;1973;50.518;7.318;2023-02-19T07:52:39;101433.13;;;11.39;100.00
3917;BME280;1973;50.518;7.318;2023-02-19T07:55:05;101443.75;;;11.42;100.00
3917;BME280;1973;50.518;7.318;2023-02-19T07:57:32;101444.84;;;11.41;100.00
3917;BME280;1973;50.518;7.318;2023-02-19T07:59:58;101447.16;;;11.38;100.00
3917;BME280;1973;50.518;7.318;2023-02-19T08:02:25;101447.78;;;11.40;100.00
3917;BME280;1973;50.518;7.318;2023-02-19T08:05:10;101445.69;;;11.42;100.00
3917;BME280;1973;50.518;7.318;2023-02-19T08:07:36;101447.59;;;11.48;100.00
3917;BME280;1973;50.518;7.318;2023-02-19T08:10:04;101457.81;;;11.54;100.00
3917;BME280;1973;50.518;7.318;2023-02-19T08:12:58;101456.34;;;11.58;100.00
3917;BME280;1973;50.518;7.318;2023-02-19T08:15:44;101458.06;;;11.59;100.00
3917;BME280;1973;50.518;7.318;2023-02-19T08:18:12;101466.97;;;11.61;100.00
3917;BME280;1973;50.518;7.318;2023-02-19T08:20:39;101474.38;;;11.60;100.00
3917;BME280;1973;50.518;7.318;2023-02-19T08:23:06;101477.78;;;11.56;100.00
3917;BME280;1973;50.518;7.318;2023-02-19T08:25:33;101487.09;;;11.55;100.00
3917;BME280;1973;50.518;7.318;2023-02-19T08:28:00;101485.38;;;11.54;100.00
3917;BME280;1973;50.518;7.318;2023-02-19T08:30:27;101494.94;;;11.58;100.00
3917;BME280;1973;50.518;7.318;2023-02-19T08:32:54;101500.91;;;11.61;100.00
3917;BME280;1973;50.518;7.318;2023-02-19T08:35:21;101504.94;;;11.59;100.00
3917;BME280;1973;50.518;7.318;2023-02-19T08:37:47;101511.94;;;11.61;100.00
3917;BME280;1973;50.518;7.318;2023-02-19T08:40:14;101504.28;;;11.57;100.00
3917;BME280;1973;50.518;7.318;2023-02-19T08:42:40;101511.94;;;11.61;100.00
3917;BME280;1973;50.518;7.318;2023-02-19T08:45:07;101511.72;;;11.56;100.00
3917;BME280;1973;50.518;7.318;2023-02-19T08:47:34;101519.78;;;11.58;100.00
3917;BME280;1973;50.518;7.318;2023-02-19T08:50:01;101512.34;;;11.58;100.00
3917;BME280;1973;50.518;7.318;2023-02-19T08:52:30;101521.47;;;11.59;100.00
3917;BME280;1973;50.518;7.318;2023-02-19T08:54:56;101523.56;;;11.57;100.00
3917;BME280;1973;50.518;7.318;2023-02-19T08:57:23;101528.66;;;11.53;100.00
3917;BME280;1973;50.518;7.318;2023-02-19T08:59:50;101542.06;;;11.56;100.00
3917;BME280;1973;50.518;7.318;2023-02-19T09:02:16;101542.25;;;11.55;100.00
3917;BME280;1973;50.518;7.318;2023-02-19T09:04:43;101540.78;;;11.59;100.00
3917;BME280;1973;50.518;7.318;2023-02-19T09:07:11;101537.38;;;11.57;100.00
3917;BME280;1973;50.518;7.318;2023-02-19T09:09:38;101536.75;;;11.61;100.00
3917;BME280;1973;50.518;7.318;2023-02-19T09:12:06;101543.38;;;11.67;100.00
3917;BME280;1973;50.518;7.318;2023-02-19T09:14:34;101548.69;;;11.68;100.00
3917;BME280;1973;50.518;7.318;2023-02-19T09:17:02;101551.06;;;11.71;100.00
3917;BME280;1973;50.518;7.318;2023-02-19T09:19:29;101547.06;;;11.74;100.00
3917;BME280;1973;50.518;7.318;2023-02-19T09:21:56;101544.31;;;11.74;100.00
3917;BME280;1973;50.518;7.318;2023-02-19T09:24:23;101537.06;;;11.73;100.00
3917;BME280;1973;50.518;7.318;2023-02-19T09:26:50;101550.44;;;11.76;100.00
3917;BME280;1973;50.518;7.318;2023-02-19T09:29:18;101536.88;;;11.75;100.00
3917;BME280;1973;50.518;7.318;2023-02-19T09:31:44;101547.06;;;11.74;100.00
3917;BME280;1973;50.518;7.318;2023-02-19T09:34:11;101551.75;;;11.80;100.00
3917;BME280;1973;50.518;7.318;2023-02-19T09:36:38;101552.00;;;11.85;100.00
3917;BME280;1973;50.518;7.318;2023-02-19T09:39:06;101558.56;;;11.91;100.00
3917;BME280;1973;50.518;7.318;2023-02-19T09:41:36;101550.97;;;11.93;100.00
3917;BME280;1973;50.518;7.318;2023-02-19T09:44:05;101562.84;;;11.93;100.00
3917;BME280;1973;50.518;7.318;2023-02-19T09:46:43;101560.31;;;11.98;100.00
3917;BME280;1973;50.518;7.318;2023-02-19T09:49:17;101563.94;;;12.05;100.00
3917;BME280;1973;50.518;7.318;2023-02-19T09:51:49;101571.41;;;12.11;100.00
3917;BME280;1973;50.518;7.318;2023-02-19T09:54:21;101574.38;;;12.16;100.00
3917;BME280;1973;50.518;7.318;2023-02-19T09:56:49;101573.97;;;12.19;100.00
3917;BME280;1973;50.518;7.318;2023-02-19T09:59:36;101569.28;;;12.13;100.00
3917;BME280;1973;50.518;7.318;2023-02-19T10:02:23;101584.38;;;12.11;100.00
3917;BME280;1973;50.518;7.318;2023-02-19T10:04:51;101575.66;;;12.14;100.00
3917;BME280;1973;50.518;7.318;2023-02-19T10:07:21;101576.28;;;12.16;100.00
3917;BME280;1973;50.518;7.318;2023-02-19T10:09:56;101587.75;;;12.13;100.00
3917;BME280;1973;50.518;7.318;2023-02-19T10:12:27;101588.19;;;12.16;100.00
3917;BME280;1973;50.518;7.318;2023-02-19T10:15:00;101591.38;;;12.13;100.00
3917;BME280;1973;50.518;7.318;2023-02-19T10:17:30;101604.13;;;12.14;100.00
3917;BME280;1973;50.518;7.318;2023-02-19T10:20:00;101611.34;;;12.15;100.00
3917;BME280;1973;50.518;7.318;2023-02-19T10:22:31;101602.44;;;12.20;100.00
3917;BME280;1973;50.518;7.318;2023-02-19T10:24:59;101604.59;;;12.25;100.00
3917;BME280;1973;50.518;7.318;2023-02-19T10:27:28;101605.41;;;12.18;100.00
3917;BME280;1973;50.518;7.318;2023-02-19T10:29:56;101600.53;;;12.20;100.00
3917;BME280;1973;50.518;7.318;2023-02-19T10:32:25;101596.91;;;12.20;100.00
3917;BME280;1973;50.518;7.318;2023-02-19T10:37:42;101614.16;;;12.29;100.00
3917;BME280;1973;50.518;7.318;2023-02-19T10:40:21;101624.56;;;12.27;100.00
3917;BME280;1973;50.518;7.318;2023-02-19T10:42:53;101610.78;;;12.33;100.00
3917;BME280;1973;50.518;7.318;2023-02-19T10:48:02;101624.41;;;12.41;100.00
3917;BME280;1973;50.518;7.318;2023-02-19T10:50:31;101635.66;;;12.46;100.00
3917;BME280;1973;50.518;7.318;2023-02-19T10:52:59;101634.81;;;12.46;100.00
3917;BME280;1973;50.518;7.318;2023-02-19T10:55:29;101641.63;;;12.50;100.00
3917;BME280;1973;50.518;7.318;2023-02-19T10:57:57;101634.19;;;12.50;100.00
3917;BME280;1973;50.518;7.318;2023-02-19T11:00:28;101637.38;;;12.54;100.00
3917;BME280;1973;50.518;7.318;2023-02-19T11:05:49;101642.91;;;12.47;100.00
3917;BME280;1973;50.518;7.318;2023-02-19T11:08:21;101650.13;;;12.48;100.00
3917;BME280;1973;50.518;7.318;2023-02-19T11:10:48;101661.38;;;12.47;100.00
3917;BME280;1973;50.518;7.318;2023-02-19T11:13:22;101675.19;;;12.47;100.00
3917;BME280;1973;50.518;7.318;2023-02-19T11:15:53;101672.59;;;12.39;100.00
3917;BME280;1973;50.518;7.318;2023-02-19T11:18:23;101671.31;;;12.35;100.00
3917;BME280;1973;50.518;7.318;2023-02-19T11:20:59;101679.81;;;12.33;100.00
3917;BME280;1973;50.518;7.318;2023-02-19T11:23:43;101682.78;;;12.32;100.00
3917;BME280;1973;50.518;7.318;2023-02-19T11:26:22;101685.53;;;12.32;100.00
3917;BME280;1973;50.518;7.318;2023-02-19T11:28:56;101684.22;;;12.28;100.00
3917;BME280;1973;50.518;7.318;2023-02-19T11:31:26;101681.25;;;12.23;100.00
3917;BME280;1973;50.518;7.318;2023-02-19T11:33:58;101689.97;;;12.26;100.00
3917;BME280;1973;50.518;7.318;2023-02-19T11:36:30;101685.09;;;12.28;100.00
3917;BME280;1973;50.518;7.318;2023-02-19T11:39:00;101692.69;;;12.19;100.00
3917;BME280;1973;50.518;7.318;2023-02-19T11:47:18;101725.25;;;11.96;100.00
3917;BME280;1973;50.518;7.318;2023-02-19T11:52:41;101721.09;;;11.79;100.00
3917;BME280;1973;50.518;7.318;2023-02-19T11:57:53;101723.09;;;11.64;100.00
3917;BME280;1973;50.518;7.318;2023-02-19T12:00:26;101723.47;;;11.61;100.00
3917;BME280;1973;50.518;7.318;2023-02-19T12:03:12;101713.28;;;11.61;100.00
3917;BME280;1973;50.518;7.318;2023-02-19T12:05:48;101709.66;;;11.61;100.00
3917;BME280;1973;50.518;7.318;2023-02-19T12:16:47;101720.47;;;11.35;100.00
3917;BME280;1973;50.518;7.318;2023-02-19T12:19:23;101716.03;;;11.34;100.00
3917;BME280;1973;50.518;7.318;2023-02-19T12:22:15;101719.63;;;11.34;100.00
3917;BME280;1973;50.518;7.318;2023-02-19T12:25:21;101717.72;;;11.35;100.00
3917;BME280;1973;50.518;7.318;2023-02-19T12:28:03;101708.91;;;11.46;100.00
3917;BME280;1973;50.518;7.318;2023-02-19T12:41:53;101688.56;;;12.43;100.00
3917;BME280;1973;50.518;7.318;2023-02-19T12:45:15;101677.47;;;12.97;100.00
3917;BME280;1973;50.518;7.318;2023-02-19T12:47:23;101674.78;;;13.37;100.00
3917;BME280;1973;50.518;7.318;2023-02-19T12:50:02;101676.25;;;13.46;100.00
3917;BME280;1973;50.518;7.318;2023-02-19T12:52:35;101670.72;;;13.46;100.00
3917;BME280;1973;50.518;7.318;2023-02-19T12:55:26;101667.75;;;13.67;100.00
3917;BME280;1973;50.518;7.318;2023-02-19T12:57:56;101676.47;;;13.64;100.00
3917;BME280;1973;50.518;7.318;2023-02-19T13:00:43;101684.78;;;13.57;100.00
3917;BME280;1973;50.518;7.318;2023-02-19T13:03:20;101682.22;;;13.43;100.00
3917;BME280;1973;50.518;7.318;2023-02-19T13:05:59;101679.66;;;13.35;100.00
3917;BME280;1973;50.518;7.318;2023-02-19T13:08:43;101677.97;;;13.27;100.00
3917;BME280;1973;50.518;7.318;2023-02-19T13:11:34;101691.16;;;13.19;100.00
3917;BME280;1973;50.518;7.318;2023-02-19T13:16:53;101717.41;;;12.88;100.00
3917;BME280;1973;50.518;7.318;2023-02-19T13:19:21;101714.75;;;12.54;100.00
3917;BME280;1973;50.518;7.318;2023-02-19T13:22:04;101709.81;;;12.43;100.00
3917;BME280;1973;50.518;7.318;2023-02-19T13:24:51;101725.81;;;12.19;100.00
3917;BME280;1973;50.518;7.318;2023-02-19T13:27:40;101736.97;;;12.05;100.00
3917;BME280;1973;50.518;7.318;2023-02-19T13:33:29;101717.88;;;12.03;100.00
3917;BME280;1973;50.518;7.318;2023-02-19T13:36:11;101723.44;;;12.10;100.00
3917;BME280;1973;50.518;7.318;2023-02-19T13:38:45;101723.28;;;12.18;100.00
3917;BME280;1973;50.518;7.318;2023-02-19T13:41:25;101724.56;;;12.22;100.00
3917;BME280;1973;50.518;7.318;2023-02-19T13:43:57;101732.50;;;12.38;100.00
3917;BME280;1973;50.518;7.318;2023-02-19T13:46:38;101733.34;;;12.39;100.00
3917;BME280;1973;50.518;7.318;2023-02-19T13:49:31;101728.91;;;12.38;100.00
3917;BME280;1973;50.518;7.318;2023-02-19T14:01:05;101716.25;;;12.15;100.00
3917;BME280;1973;50.518;7.318;2023-02-19T14:04:05;101722.22;;;12.19;100.00
3917;BME280;1973;50.518;7.318;2023-02-19T14:14:52;101719.91;;;12.63;100.00
3917;BME280;1973;50.518;7.318;2023-02-19T14:30:52;101745.09;;;13.01;100.00
3917;BME280;1973;50.518;7.318;2023-02-19T14:33:25;101754.47;;;13.00;100.00
3917;BME280;1973;50.518;7.318;2023-02-19T14:35:56;101751.88;;;12.92;100.00
3917;BME280;1973;50.518;7.318;2023-02-19T14:38:37;101751.81;;;12.79;100.00
3917;BME280;1973;50.518;7.318;2023-02-19T14:41:05;101756.91;;;12.76;100.00
3917;BME280;1973;50.518;7.318;2023-02-19T14:43:32;101760.31;;;12.71;100.00
3917;BME280;1973;50.518;7.318;2023-02-19T14:46:08;101775.97;;;12.64;100.00
3917;BME280;1973;50.518;7.318;2023-02-19T14:48:45;101775.31;;;12.55;100.00
3917;BME280;1973;50.518;7.318;2023-02-19T14:51:25;101772.53;;;12.49;100.00
3917;BME280;1973;50.518;7.318;2023-02-19T14:53:55;101770.97;;;12.40;100.00
3917;BME280;1973;50.518;7.318;2023-02-19T14:56:29;101782.84;;;12.34;100.00